Burgin, KY (40310)

11:38 AM EST del 01 Febbraio 2015 (GMT -0500)
Berwick Drive | Change Station
CLOSE
Current Station
Stazione meteo personale
Location: Danville, KY
Altitudine: 980 ft
Stazioni meteo nelle vicinanze

Alt. 980 ft 37.66 °N, 84.79 °W | Updated 3 minutes ago

Pioggia
Pioggia
43.1 °F
Sembra 40 °F
N
5.0
Vento Variabile Vento da Sud
Gusts 7.0 mph

Oggi
Massima -- | Minima -- °F
--% Possibilità di precip.
Ieri
Massima -- | Minima -- °F
Precip. -- in
7:43 AM 6:02 PM
Gobba a ponente, 95% visible
Pressione 29.98 in
Visibilità 10.0 miglia
Nuvole Nubi sparse 4300 ft
Coperto 4900 ft
Raffreddamento del vento 40 °F
Punto di rugiada 35 °F
Umidità 72%
Piovosità 0.00 in
Spessore del manto nevoso Non disponibile.
Raggi UV 1 fuori da 12
Polline .10 fuori da 12
Qualità dell'aria Non disponibile.
Flu Activity Non disponibile.
METAR KDVK 011615Z AUTO 19009KT 10SM -RA SCT043 OVC049 05/00 A2998 RMK AO2

More Conditions Fewer Conditions

Pressione 29.98 in
Visibilità 10.0 miglia
Nuvole Nubi sparse 4300 ft
Coperto 4900 ft
Raffreddamento del vento 40 °F
Punto di rugiada 35 °F
Umidità 72%
Piovosità 0.00 in
Spessore del manto nevoso Non disponibile.
Raggi UV 1 fuori da 12
Polline .10 fuori da 12
Qualità dell'aria Non disponibile.
Flu Activity Non disponibile.
METAR KDVK 011615Z AUTO 19009KT 10SM -RA SCT043 OVC049 05/00 A2998 RMK AO2

More Conditions Fewer Conditions

10-Day Weather Forecast

Almanac

Astronomia

Feb. 01, 2015 Alba Tramonto
Ora attuale
Crepuscolo civile
Crepuscolo nautico
Crepuscolo astronomico
Luna
Estensione della luce visibile
Lunghezza del giorno
Tomorrow will be .
, % of the Moon is Illuminated

Gli estremi di oggi

State Highs State Lows

Community

WunderPhotos

Upload Photos

1,792,362 foto caricate!

WunderBlogs® & News

Nearby

Qualità dell'aria

  Qualità dell'aria Indice AQ Inquinante
Not available.

Profondità neve

Stazione Profondità Altitudine

Attività sismica

Città  Distanza Mag. Data & Ora
Minimo Magnitudo Mostrato è 2.5.

Temperature delle acque costiere

Località Temperatura

Stazioni meteo nelle vicinanze